sensor_id;sensor_type;location;lat;lon;timestamp;temperature;humidity
37052;DHT22;22964;52.272;13.356;2022-12-18T00:00:45;-0.30;73.40
37052;DHT22;22964;52.272;13.356;2022-12-18T00:03:15;-0.30;73.50
37052;DHT22;22964;52.272;13.356;2022-12-18T00:05:51;-0.30;73.50
37052;DHT22;22964;52.272;13.356;2022-12-18T00:08:18;-0.40;73.40
37052;DHT22;22964;52.272;13.356;2022-12-18T00:10:45;-0.40;73.30
37052;DHT22;22964;52.272;13.356;2022-12-18T00:13:11;-0.40;73.30
37052;DHT22;22964;52.272;13.356;2022-12-18T00:15:38;-0.40;73.40
37052;DHT22;22964;52.272;13.356;2022-12-18T00:18:05;-0.40;73.50
37052;DHT22;22964;52.272;13.356;2022-12-18T00:20:31;-0.50;73.40
37052;DHT22;22964;52.272;13.356;2022-12-18T00:22:57;-0.50;73.50
37052;DHT22;22964;52.272;13.356;2022-12-18T00:25:22;-0.50;73.50
37052;DHT22;22964;52.272;13.356;2022-12-18T00:27:48;-0.50;73.60
37052;DHT22;22964;52.272;13.356;2022-12-18T00:30:14;-0.50;73.70
37052;DHT22;22964;52.272;13.356;2022-12-18T00:32:40;-0.50;73.80
37052;DHT22;22964;52.272;13.356;2022-12-18T00:35:06;-0.50;73.90
37052;DHT22;22964;52.272;13.356;2022-12-18T00:37:33;-0.50;73.90
37052;DHT22;22964;52.272;13.356;2022-12-18T00:39:59;-0.50;73.90
37052;DHT22;22964;52.272;13.356;2022-12-18T00:42:25;-0.50;73.90
37052;DHT22;22964;52.272;13.356;2022-12-18T00:45:14;-0.50;73.90
37052;DHT22;22964;52.272;13.356;2022-12-18T00:47:40;-0.50;73.90
37052;DHT22;22964;52.272;13.356;2022-12-18T00:50:06;-0.50;74.00
37052;DHT22;22964;52.272;13.356;2022-12-18T00:52:32;-0.50;74.10
37052;DHT22;22964;52.272;13.356;2022-12-18T00:54:58;-0.50;74.10
37052;DHT22;22964;52.272;13.356;2022-12-18T00:57:23;-0.50;74.20
37052;DHT22;22964;52.272;13.356;2022-12-18T00:59:49;-0.40;74.20
37052;DHT22;22964;52.272;13.356;2022-12-18T01:02:17;-0.50;74.10
37052;DHT22;22964;52.272;13.356;2022-12-18T01:04:43;-0.40;74.10
37052;DHT22;22964;52.272;13.356;2022-12-18T01:07:08;-0.40;74.10
37052;DHT22;22964;52.272;13.356;2022-12-18T01:09:34;-0.50;74.00
37052;DHT22;22964;52.272;13.356;2022-12-18T01:12:00;-0.40;74.10
37052;DHT22;22964;52.272;13.356;2022-12-18T01:14:26;-0.40;74.10
37052;DHT22;22964;52.272;13.356;2022-12-18T01:16:52;-0.40;74.10
37052;DHT22;22964;52.272;13.356;2022-12-18T01:19:18;-0.40;74.90
37052;DHT22;22964;52.272;13.356;2022-12-18T01:21:45;-0.40;74.10
37052;DHT22;22964;52.272;13.356;2022-12-18T01:24:12;-0.40;74.10
37052;DHT22;22964;52.272;13.356;2022-12-18T01:26:38;-0.40;74.20
37052;DHT22;22964;52.272;13.356;2022-12-18T01:29:04;-0.40;74.10
37052;DHT22;22964;52.272;13.356;2022-12-18T01:31:31;-0.40;74.10
37052;DHT22;22964;52.272;13.356;2022-12-18T01:33:59;-0.40;74.10
37052;DHT22;22964;52.272;13.356;2022-12-18T01:36:28;-0.40;74.00
37052;DHT22;22964;52.272;13.356;2022-12-18T01:38:55;-0.40;74.00
37052;DHT22;22964;52.272;13.356;2022-12-18T01:41:24;-0.40;74.00
37052;DHT22;22964;52.272;13.356;2022-12-18T01:43:53;-0.40;74.10
37052;DHT22;22964;52.272;13.356;2022-12-18T01:46:21;-0.40;74.00
37052;DHT22;22964;52.272;13.356;2022-12-18T01:48:55;-0.40;74.00
37052;DHT22;22964;52.272;13.356;2022-12-18T01:51:22;-0.40;74.10
37052;DHT22;22964;52.272;13.356;2022-12-18T01:53:48;-0.40;74.00
37052;DHT22;22964;52.272;13.356;2022-12-18T01:56:19;-0.40;74.00
37052;DHT22;22964;52.272;13.356;2022-12-18T02:01:14;-0.40;73.90
37052;DHT22;22964;52.272;13.356;2022-12-18T02:03:44;-0.40;73.90
37052;DHT22;22964;52.272;13.356;2022-12-18T02:06:12;-0.40;73.80
37052;DHT22;22964;52.272;13.356;2022-12-18T02:09:07;-0.40;73.80
37052;DHT22;22964;52.272;13.356;2022-12-18T02:25:21;-0.40;74.10
37052;DHT22;22964;52.272;13.356;2022-12-18T02:27:51;-0.40;74.00
37052;DHT22;22964;52.272;13.356;2022-12-18T02:30:20;-0.40;73.90
37052;DHT22;22964;52.272;13.356;2022-12-18T02:32:50;-0.40;73.80
37052;DHT22;22964;52.272;13.356;2022-12-18T02:35:21;-0.40;73.70
37052;DHT22;22964;52.272;13.356;2022-12-18T02:37:55;-0.50;73.70
37052;DHT22;22964;52.272;13.356;2022-12-18T02:40:23;-0.40;73.70
37052;DHT22;22964;52.272;13.356;2022-12-18T02:42:50;-0.50;73.80
37052;DHT22;22964;52.272;13.356;2022-12-18T02:45:18;-0.50;73.80
37052;DHT22;22964;52.272;13.356;2022-12-18T02:47:47;-0.50;73.80
37052;DHT22;22964;52.272;13.356;2022-12-18T03:04:28;-0.60;73.70
37052;DHT22;22964;52.272;13.356;2022-12-18T03:07:02;-0.60;73.80
37052;DHT22;22964;52.272;13.356;2022-12-18T03:09:39;-0.60;73.90
37052;DHT22;22964;52.272;13.356;2022-12-18T03:12:18;-0.60;74.00
37052;DHT22;22964;52.272;13.356;2022-12-18T03:17:33;-0.60;74.10
37052;DHT22;22964;52.272;13.356;2022-12-18T03:20:07;-0.60;74.00
37052;DHT22;22964;52.272;13.356;2022-12-18T03:22:37;-0.50;73.90
37052;DHT22;22964;52.272;13.356;2022-12-18T03:25:07;-0.60;73.80
37052;DHT22;22964;52.272;13.356;2022-12-18T03:27:40;-0.60;73.70
37052;DHT22;22964;52.272;13.356;2022-12-18T03:30:12;-0.60;73.50
37052;DHT22;22964;52.272;13.356;2022-12-18T03:35:22;-0.70;73.40
37052;DHT22;22964;52.272;13.356;2022-12-18T03:37:48;-0.60;73.60
37052;DHT22;22964;52.272;13.356;2022-12-18T03:40:15;-0.70;73.50
37052;DHT22;22964;52.272;13.356;2022-12-18T03:43:02;-0.70;73.50
37052;DHT22;22964;52.272;13.356;2022-12-18T03:45:34;-0.70;73.60
37052;DHT22;22964;52.272;13.356;2022-12-18T03:56:04;-0.80;73.40
37052;DHT22;22964;52.272;13.356;2022-12-18T03:58:37;-0.80;73.40
37052;DHT22;22964;52.272;13.356;2022-12-18T04:01:16;-0.80;73.50
37052;DHT22;22964;52.272;13.356;2022-12-18T04:03:45;-0.90;73.50
37052;DHT22;22964;52.272;13.356;2022-12-18T04:06:12;-0.90;73.60
37052;DHT22;22964;52.272;13.356;2022-12-18T04:08:40;-0.90;73.60
37052;DHT22;22964;52.272;13.356;2022-12-18T04:11:09;-0.90;74.60
37052;DHT22;22964;52.272;13.356;2022-12-18T04:13:36;-0.90;73.80
37052;DHT22;22964;52.272;13.356;2022-12-18T04:16:06;-0.90;73.80
37052;DHT22;22964;52.272;13.356;2022-12-18T04:18:32;-0.90;73.90
37052;DHT22;22964;52.272;13.356;2022-12-18T04:20:59;-0.90;73.90
37052;DHT22;22964;52.272;13.356;2022-12-18T04:23:25;-0.90;73.80
37052;DHT22;22964;52.272;13.356;2022-12-18T04:25:54;-0.90;73.80
37052;DHT22;22964;52.272;13.356;2022-12-18T04:28:34;-0.90;73.70
37052;DHT22;22964;52.272;13.356;2022-12-18T04:31:00;-0.90;73.60
37052;DHT22;22964;52.272;13.356;2022-12-18T04:33:26;-0.90;73.50
37052;DHT22;22964;52.272;13.356;2022-12-18T04:35:52;-0.90;73.50
37052;DHT22;22964;52.272;13.356;2022-12-18T04:38:18;-0.90;73.50
37052;DHT22;22964;52.272;13.356;2022-12-18T04:40:46;-0.90;73.50
37052;DHT22;22964;52.272;13.356;2022-12-18T04:43:20;-0.90;73.50
37052;DHT22;22964;52.272;13.356;2022-12-18T04:45:45;-0.90;73.50
37052;DHT22;22964;52.272;13.356;2022-12-18T04:48:12;-0.90;73.50
37052;DHT22;22964;52.272;13.356;2022-12-18T04:50:37;-0.90;73.50
37052;DHT22;22964;52.272;13.356;2022-12-18T04:53:03;-0.90;73.50
37052;DHT22;22964;52.272;13.356;2022-12-18T04:55:29;-0.90;73.60
37052;DHT22;22964;52.272;13.356;2022-12-18T04:57:55;-0.90;73.50
37052;DHT22;22964;52.272;13.356;2022-12-18T05:00:21;-0.90;73.50
37052;DHT22;22964;52.272;13.356;2022-12-18T05:02:47;-0.90;73.40
37052;DHT22;22964;52.272;13.356;2022-12-18T05:05:13;-0.90;73.40
37052;DHT22;22964;52.272;13.356;2022-12-18T05:07:39;-1.00;73.30
37052;DHT22;22964;52.272;13.356;2022-12-18T05:10:08;-1.00;73.40
37052;DHT22;22964;52.272;13.356;2022-12-18T05:12:34;-0.90;73.50
37052;DHT22;22964;52.272;13.356;2022-12-18T05:15:19;-0.90;73.50
37052;DHT22;22964;52.272;13.356;2022-12-18T05:17:45;-0.90;73.50
37052;DHT22;22964;52.272;13.356;2022-12-18T05:20:10;-0.90;73.50
37052;DHT22;22964;52.272;13.356;2022-12-18T05:22:36;-0.90;73.40
37052;DHT22;22964;52.272;13.356;2022-12-18T05:25:02;-0.90;73.40
37052;DHT22;22964;52.272;13.356;2022-12-18T05:27:27;-1.00;73.40
37052;DHT22;22964;52.272;13.356;2022-12-18T05:29:53;-1.00;73.30
37052;DHT22;22964;52.272;13.356;2022-12-18T05:32:19;-1.00;73.40
37052;DHT22;22964;52.272;13.356;2022-12-18T05:34:44;-1.00;73.50
37052;DHT22;22964;52.272;13.356;2022-12-18T05:37:10;-1.00;73.60
37052;DHT22;22964;52.272;13.356;2022-12-18T05:39:36;-1.00;73.60
37052;DHT22;22964;52.272;13.356;2022-12-18T05:42:01;-1.00;73.70
37052;DHT22;22964;52.272;13.356;2022-12-18T05:44:27;-0.90;73.90
37052;DHT22;22964;52.272;13.356;2022-12-18T05:46:53;-1.00;73.90
37052;DHT22;22964;52.272;13.356;2022-12-18T05:49:18;-0.90;74.00
37052;DHT22;22964;52.272;13.356;2022-12-18T05:51:44;-0.90;74.00
37052;DHT22;22964;52.272;13.356;2022-12-18T05:54:10;-0.90;74.10
37052;DHT22;22964;52.272;13.356;2022-12-18T05:56:36;-0.90;74.10
37052;DHT22;22964;52.272;13.356;2022-12-18T05:59:02;-0.90;74.20
37052;DHT22;22964;52.272;13.356;2022-12-18T06:01:27;-0.90;74.20
37052;DHT22;22964;52.272;13.356;2022-12-18T06:03:54;-0.80;74.20
37052;DHT22;22964;52.272;13.356;2022-12-18T06:06:23;-0.80;74.30
37052;DHT22;22964;52.272;13.356;2022-12-18T06:08:50;-0.80;74.30
37052;DHT22;22964;52.272;13.356;2022-12-18T06:11:18;-0.90;74.30
37052;DHT22;22964;52.272;13.356;2022-12-18T06:13:44;-0.80;74.30
37052;DHT22;22964;52.272;13.356;2022-12-18T06:16:10;-0.80;74.40
37052;DHT22;22964;52.272;13.356;2022-12-18T06:18:38;-0.80;74.50
37052;DHT22;22964;52.272;13.356;2022-12-18T06:21:04;-0.80;74.60
37052;DHT22;22964;52.272;13.356;2022-12-18T06:23:30;-0.70;74.70
37052;DHT22;22964;52.272;13.356;2022-12-18T06:25:56;-0.70;74.70
37052;DHT22;22964;52.272;13.356;2022-12-18T06:28:21;-0.70;74.70
37052;DHT22;22964;52.272;13.356;2022-12-18T06:30:47;-0.70;74.70
37052;DHT22;22964;52.272;13.356;2022-12-18T06:33:14;-0.70;74.60
37052;DHT22;22964;52.272;13.356;2022-12-18T06:35:41;-0.70;74.60
37052;DHT22;22964;52.272;13.356;2022-12-18T06:38:07;-0.60;74.60
37052;DHT22;22964;52.272;13.356;2022-12-18T06:40:33;-0.60;74.70
37052;DHT22;22964;52.272;13.356;2022-12-18T06:42:59;-0.60;74.70
37052;DHT22;22964;52.272;13.356;2022-12-18T06:45:25;-0.60;74.70
37052;DHT22;22964;52.272;13.356;2022-12-18T06:47:50;-0.60;74.80
37052;DHT22;22964;52.272;13.356;2022-12-18T06:50:16;-0.60;74.80
37052;DHT22;22964;52.272;13.356;2022-12-18T06:52:42;-0.60;74.80
37052;DHT22;22964;52.272;13.356;2022-12-18T06:55:10;-0.60;74.80
37052;DHT22;22964;52.272;13.356;2022-12-18T06:57:36;-0.50;74.90
37052;DHT22;22964;52.272;13.356;2022-12-18T07:00:04;-0.60;74.90
37052;DHT22;22964;52.272;13.356;2022-12-18T07:02:30;-0.50;75.00
37052;DHT22;22964;52.272;13.356;2022-12-18T07:04:56;-0.50;75.00
37052;DHT22;22964;52.272;13.356;2022-12-18T07:07:22;-0.50;74.90
37052;DHT22;22964;52.272;13.356;2022-12-18T07:09:49;-0.50;75.00
37052;DHT22;22964;52.272;13.356;2022-12-18T07:12:15;-0.50;75.10
37052;DHT22;22964;52.272;13.356;2022-12-18T07:14:41;-0.50;75.10
37052;DHT22;22964;52.272;13.356;2022-12-18T07:17:07;-0.50;75.10
37052;DHT22;22964;52.272;13.356;2022-12-18T07:19:33;-0.40;75.20
37052;DHT22;22964;52.272;13.356;2022-12-18T07:21:59;-0.40;75.30
37052;DHT22;22964;52.272;13.356;2022-12-18T07:24:24;-0.40;75.30
37052;DHT22;22964;52.272;13.356;2022-12-18T07:26:50;-0.40;75.30
37052;DHT22;22964;52.272;13.356;2022-12-18T07:29:16;-0.40;75.30
37052;DHT22;22964;52.272;13.356;2022-12-18T07:31:42;-0.40;75.40
37052;DHT22;22964;52.272;13.356;2022-12-18T07:34:14;-0.40;75.30
37052;DHT22;22964;52.272;13.356;2022-12-18T07:36:41;-0.40;75.40
37052;DHT22;22964;52.272;13.356;2022-12-18T07:39:06;-0.40;75.40
37052;DHT22;22964;52.272;13.356;2022-12-18T07:41:32;-0.40;75.40
37052;DHT22;22964;52.272;13.356;2022-12-18T07:44:09;-0.40;75.50
37052;DHT22;22964;52.272;13.356;2022-12-18T07:46:35;-0.40;75.50
37052;DHT22;22964;52.272;13.356;2022-12-18T07:49:01;-0.40;75.60
37052;DHT22;22964;52.272;13.356;2022-12-18T07:51:26;-0.40;75.70
37052;DHT22;22964;52.272;13.356;2022-12-18T07:53:52;-0.40;75.70
37052;DHT22;22964;52.272;13.356;2022-12-18T07:56:18;-0.40;75.80
37052;DHT22;22964;52.272;13.356;2022-12-18T07:58:47;-0.40;75.90
37052;DHT22;22964;52.272;13.356;2022-12-18T08:01:13;-0.40;76.00
37052;DHT22;22964;52.272;13.356;2022-12-18T08:03:39;-0.40;76.00
37052;DHT22;22964;52.272;13.356;2022-12-18T08:06:07;-0.50;75.90
37052;DHT22;22964;52.272;13.356;2022-12-18T08:08:35;-0.50;76.00
37052;DHT22;22964;52.272;13.356;2022-12-18T08:11:01;-0.50;76.10
37052;DHT22;22964;52.272;13.356;2022-12-18T08:13:27;-0.60;76.10
37052;DHT22;22964;52.272;13.356;2022-12-18T08:16:04;-0.50;76.20
37052;DHT22;22964;52.272;13.356;2022-12-18T08:18:35;-0.50;76.20
37052;DHT22;22964;52.272;13.356;2022-12-18T08:21:12;-0.50;76.20
37052;DHT22;22964;52.272;13.356;2022-12-18T08:23:38;-0.50;76.30
37052;DHT22;22964;52.272;13.356;2022-12-18T08:26:04;-0.50;76.30
37052;DHT22;22964;52.272;13.356;2022-12-18T08:28:30;-0.40;76.30
37052;DHT22;22964;52.272;13.356;2022-12-18T08:30:55;-0.40;76.40
37052;DHT22;22964;52.272;13.356;2022-12-18T08:33:21;-0.40;76.40
37052;DHT22;22964;52.272;13.356;2022-12-18T08:35:47;-0.40;76.40
37052;DHT22;22964;52.272;13.356;2022-12-18T08:38:12;-0.50;76.30
37052;DHT22;22964;52.272;13.356;2022-12-18T08:40:38;-0.40;76.40
37052;DHT22;22964;52.272;13.356;2022-12-18T08:43:04;-0.50;76.40
37052;DHT22;22964;52.272;13.356;2022-12-18T08:45:48;-0.50;76.30
37052;DHT22;22964;52.272;13.356;2022-12-18T08:48:14;-0.40;76.40
37052;DHT22;22964;52.272;13.356;2022-12-18T08:50:40;-0.40;76.40
37052;DHT22;22964;52.272;13.356;2022-12-18T08:53:06;-0.40;76.50
37052;DHT22;22964;52.272;13.356;2022-12-18T08:55:31;-0.30;76.70
37052;DHT22;22964;52.272;13.356;2022-12-18T08:57:57;-0.30;76.60
37052;DHT22;22964;52.272;13.356;2022-12-18T09:00:23;-0.30;76.70
37052;DHT22;22964;52.272;13.356;2022-12-18T09:02:49;-0.30;76.50
37052;DHT22;22964;52.272;13.356;2022-12-18T09:05:14;-0.20;76.50
37052;DHT22;22964;52.272;13.356;2022-12-18T09:07:40;-0.20;76.50
37052;DHT22;22964;52.272;13.356;2022-12-18T09:10:06;-0.20;76.60
37052;DHT22;22964;52.272;13.356;2022-12-18T09:12:32;-0.10;76.60
37052;DHT22;22964;52.272;13.356;2022-12-18T09:14:57;-0.10;76.50
37052;DHT22;22964;52.272;13.356;2022-12-18T09:17:23;-0.10;77.20
37052;DHT22;22964;52.272;13.356;2022-12-18T09:19:49;0.00;76.20
37052;DHT22;22964;52.272;13.356;2022-12-18T09:22:14;0.00;76.20
37052;DHT22;22964;52.272;13.356;2022-12-18T09:24:40;0.00;76.10
37052;DHT22;22964;52.272;13.356;2022-12-18T09:27:06;0.00;76.00
37052;DHT22;22964;52.272;13.356;2022-12-18T09:29:32;0.10;76.00
37052;DHT22;22964;52.272;13.356;2022-12-18T09:31:58;0.10;75.90
37052;DHT22;22964;52.272;13.356;2022-12-18T09:34:23;0.10;75.80
37052;DHT22;22964;52.272;13.356;2022-12-18T09:36:50;0.10;75.70
37052;DHT22;22964;52.272;13.356;2022-12-18T09:39:15;0.10;75.70
37052;DHT22;22964;52.272;13.356;2022-12-18T09:49:19;0.10;75.90
37052;DHT22;22964;52.272;13.356;2022-12-18T09:51:51;0.10;75.90
37052;DHT22;22964;52.272;13.356;2022-12-18T09:54:33;0.20;76.00
37052;DHT22;22964;52.272;13.356;2022-12-18T09:57:01;0.20;76.10
37052;DHT22;22964;52.272;13.356;2022-12-18T09:59:33;0.20;76.20
37052;DHT22;22964;52.272;13.356;2022-12-18T10:02:00;0.30;76.40
37052;DHT22;22964;52.272;13.356;2022-12-18T10:04:28;0.30;76.30
37052;DHT22;22964;52.272;13.356;2022-12-18T10:07:28;0.30;76.40
37052;DHT22;22964;52.272;13.356;2022-12-18T10:10:13;0.40;76.60
37052;DHT22;22964;52.272;13.356;2022-12-18T10:12:59;0.40;76.50
37052;DHT22;22964;52.272;13.356;2022-12-18T10:15:43;0.40;76.40
37052;DHT22;22964;52.272;13.356;2022-12-18T10:21:17;0.40;76.50
37052;DHT22;22964;52.272;13.356;2022-12-18T10:23:53;0.50;76.70
37052;DHT22;22964;52.272;13.356;2022-12-18T10:26:24;0.50;76.70
37052;DHT22;22964;52.272;13.356;2022-12-18T10:28:51;0.50;76.60
37052;DHT22;22964;52.272;13.356;2022-12-18T10:31:22;0.60;76.70
37052;DHT22;22964;52.272;13.356;2022-12-18T10:33:48;0.60;76.80
37052;DHT22;22964;52.272;13.356;2022-12-18T10:36:14;0.60;76.70
37052;DHT22;22964;52.272;13.356;2022-12-18T10:38:40;0.60;76.70
37052;DHT22;22964;52.272;13.356;2022-12-18T10:41:23;0.60;76.70
37052;DHT22;22964;52.272;13.356;2022-12-18T10:46:37;0.70;76.80
37052;DHT22;22964;52.272;13.356;2022-12-18T10:49:02;0.80;76.90
37052;DHT22;22964;52.272;13.356;2022-12-18T10:51:36;0.80;76.80
37052;DHT22;22964;52.272;13.356;2022-12-18T10:54:06;0.80;77.10
37052;DHT22;22964;52.272;13.356;2022-12-18T10:56:38;0.90;77.00
37052;DHT22;22964;52.272;13.356;2022-12-18T10:59:09;0.90;76.90
37052;DHT22;22964;52.272;13.356;2022-12-18T11:01:57;0.90;76.90
37052;DHT22;22964;52.272;13.356;2022-12-18T11:04:25;1.00;77.10
37052;DHT22;22964;52.272;13.356;2022-12-18T11:09:28;1.00;77.20
37052;DHT22;22964;52.272;13.356;2022-12-18T11:11:58;1.00;77.10
37052;DHT22;22964;52.272;13.356;2022-12-18T11:14:51;1.00;77.00
37052;DHT22;22964;52.272;13.356;2022-12-18T11:17:33;1.00;77.00
37052;DHT22;22964;52.272;13.356;2022-12-18T11:20:03;1.00;77.00
37052;DHT22;22964;52.272;13.356;2022-12-18T11:22:31;1.10;77.10
37052;DHT22;22964;52.272;13.356;2022-12-18T11:28:03;1.10;77.20
37052;DHT22;22964;52.272;13.356;2022-12-18T11:30:34;1.20;77.30
37052;DHT22;22964;52.272;13.356;2022-12-18T11:33:04;1.20;77.20
37052;DHT22;22964;52.272;13.356;2022-12-18T11:35:49;1.30;77.20
37052;DHT22;22964;52.272;13.356;2022-12-18T11:41:27;1.30;77.00
37052;DHT22;22964;52.272;13.356;2022-12-18T11:44:18;1.30;76.80
37052;DHT22;22964;52.272;13.356;2022-12-18T11:46:52;1.30;76.70
37052;DHT22;22964;52.272;13.356;2022-12-18T11:49:25;1.20;76.50
37052;DHT22;22964;52.272;13.356;2022-12-18T11:51:56;1.20;76.50
37052;DHT22;22964;52.272;13.356;2022-12-18T11:54:23;1.20;76.70
37052;DHT22;22964;52.272;13.356;2022-12-18T11:56:53;1.20;76.70
37052;DHT22;22964;52.272;13.356;2022-12-18T11:59:39;1.20;76.70
37052;DHT22;22964;52.272;13.356;2022-12-18T12:08:57;1.20;76.60
37052;DHT22;22964;52.272;13.356;2022-12-18T12:16:37;1.30;76.50
37052;DHT22;22964;52.272;13.356;2022-12-18T12:22:03;1.20;76.30
37052;DHT22;22964;52.272;13.356;2022-12-18T12:27:33;1.20;76.30
37052;DHT22;22964;52.272;13.356;2022-12-18T12:35:43;1.10;76.40
37052;DHT22;22964;52.272;13.356;2022-12-18T12:38:29;1.20;76.60
37052;DHT22;22964;52.272;13.356;2022-12-18T12:41:04;1.20;76.60
37052;DHT22;22964;52.272;13.356;2022-12-18T12:43:43;1.20;76.70
37052;DHT22;22964;52.272;13.356;2022-12-18T12:46:11;1.20;76.80
37052;DHT22;22964;52.272;13.356;2022-12-18T12:51:32;1.30;76.70
37052;DHT22;22964;52.272;13.356;2022-12-18T12:54:01;1.30;76.70
37052;DHT22;22964;52.272;13.356;2022-12-18T12:56:44;1.30;76.60
37052;DHT22;22964;52.272;13.356;2022-12-18T13:02:29;1.30;76.40
37052;DHT22;22964;52.272;13.356;2022-12-18T13:07:39;1.30;76.40
37052;DHT22;22964;52.272;13.356;2022-12-18T13:15:41;1.30;76.50
37052;DHT22;22964;52.272;13.356;2022-12-18T13:20:46;1.30;76.40
37052;DHT22;22964;52.272;13.356;2022-12-18T13:23:25;1.30;76.40
37052;DHT22;22964;52.272;13.356;2022-12-18T13:31:00;1.30;76.40
37052;DHT22;22964;52.272;13.356;2022-12-18T13:43:31;1.40;76.30
37052;DHT22;22964;52.272;13.356;2022-12-18T13:48:28;1.40;76.10
37052;DHT22;22964;52.272;13.356;2022-12-18T13:51:00;1.40;75.90
37052;DHT22;22964;52.272;13.356;2022-12-18T13:53:42;1.40;75.90
37052;DHT22;22964;52.272;13.356;2022-12-18T13:56:08;1.40;76.00
37052;DHT22;22964;52.272;13.356;2022-12-18T13:58:34;1.30;75.90
37052;DHT22;22964;52.272;13.356;2022-12-18T14:01:00;1.30;75.80
37052;DHT22;22964;52.272;13.356;2022-12-18T14:03:29;1.30;75.60
37052;DHT22;22964;52.272;13.356;2022-12-18T14:06:06;1.30;75.40
37052;DHT22;22964;52.272;13.356;2022-12-18T14:08:38;1.30;75.40
37052;DHT22;22964;52.272;13.356;2022-12-18T14:11:05;1.30;75.40
37052;DHT22;22964;52.272;13.356;2022-12-18T14:13:37;1.30;75.40
37052;DHT22;22964;52.272;13.356;2022-12-18T14:16:05;1.30;75.40
37052;DHT22;22964;52.272;13.356;2022-12-18T14:18:45;1.30;75.40
37052;DHT22;22964;52.272;13.356;2022-12-18T14:21:29;1.30;75.40
37052;DHT22;22964;52.272;13.356;2022-12-18T14:24:16;1.30;75.40
37052;DHT22;22964;52.272;13.356;2022-12-18T14:26:43;1.30;75.40
37052;DHT22;22964;52.272;13.356;2022-12-18T14:32:11;1.20;75.50
37052;DHT22;22964;52.272;13.356;2022-12-18T14:34:37;1.20;75.60
37052;DHT22;22964;52.272;13.356;2022-12-18T14:37:04;1.20;75.70
37052;DHT22;22964;52.272;13.356;2022-12-18T14:39:29;1.10;75.60
37052;DHT22;22964;52.272;13.356;2022-12-18T14:41:55;1.20;75.90
37052;DHT22;22964;52.272;13.356;2022-12-18T14:44:21;1.20;75.90
37052;DHT22;22964;52.272;13.356;2022-12-18T14:46:48;1.10;75.80
37052;DHT22;22964;52.272;13.356;2022-12-18T14:49:32;1.20;75.90
37052;DHT22;22964;52.272;13.356;2022-12-18T14:54:28;1.20;75.60
37052;DHT22;22964;52.272;13.356;2022-12-18T14:57:00;1.10;75.40
37052;DHT22;22964;52.272;13.356;2022-12-18T14:59:28;1.10;75.20
37052;DHT22;22964;52.272;13.356;2022-12-18T15:04:40;1.00;75.10
37052;DHT22;22964;52.272;13.356;2022-12-18T15:07:18;1.00;75.30
37052;DHT22;22964;52.272;13.356;2022-12-18T15:15:04;0.90;75.40
37052;DHT22;22964;52.272;13.356;2022-12-18T15:17:31;0.90;75.40
37052;DHT22;22964;52.272;13.356;2022-12-18T15:20:02;0.80;75.40
37052;DHT22;22964;52.272;13.356;2022-12-18T15:22:34;0.80;75.40
37052;DHT22;22964;52.272;13.356;2022-12-18T15:25:00;0.80;75.50
37052;DHT22;22964;52.272;13.356;2022-12-18T15:27:30;0.80;75.60
37052;DHT22;22964;52.272;13.356;2022-12-18T15:30:22;0.80;75.50
37052;DHT22;22964;52.272;13.356;2022-12-18T15:32:49;0.80;75.60
37052;DHT22;22964;52.272;13.356;2022-12-18T15:37:43;0.90;75.60
37052;DHT22;22964;52.272;13.356;2022-12-18T15:40:18;0.90;75.50
37052;DHT22;22964;52.272;13.356;2022-12-18T15:42:45;0.90;75.60
37052;DHT22;22964;52.272;13.356;2022-12-18T15:45:30;0.90;75.60
37052;DHT22;22964;52.272;13.356;2022-12-18T15:47:55;0.90;75.60
37052;DHT22;22964;52.272;13.356;2022-12-18T15:50:21;0.90;75.60
37052;DHT22;22964;52.272;13.356;2022-12-18T15:52:49;0.90;75.60
37052;DHT22;22964;52.272;13.356;2022-12-18T15:55:21;0.90;75.60
37052;DHT22;22964;52.272;13.356;2022-12-18T15:58:07;0.90;75.60
37052;DHT22;22964;52.272;13.356;2022-12-18T16:00:35;0.90;75.60
37052;DHT22;22964;52.272;13.356;2022-12-18T16:03:02;0.80;75.40
37052;DHT22;22964;52.272;13.356;2022-12-18T16:05:28;0.80;75.50
37052;DHT22;22964;52.272;13.356;2022-12-18T16:07:54;0.70;75.50
37052;DHT22;22964;52.272;13.356;2022-12-18T16:10:20;0.70;75.70
37052;DHT22;22964;52.272;13.356;2022-12-18T16:12:46;0.70;75.80
37052;DHT22;22964;52.272;13.356;2022-12-18T16:15:14;0.60;75.80
37052;DHT22;22964;52.272;13.356;2022-12-18T16:17:42;0.60;75.80
37052;DHT22;22964;52.272;13.356;2022-12-18T16:20:21;0.60;75.80
37052;DHT22;22964;52.272;13.356;2022-12-18T16:22:48;0.60;75.70
37052;DHT22;22964;52.272;13.356;2022-12-18T16:25:26;0.60;75.60
37052;DHT22;22964;52.272;13.356;2022-12-18T16:27:53;0.60;75.40
37052;DHT22;22964;52.272;13.356;2022-12-18T16:30:26;0.60;75.20
37052;DHT22;22964;52.272;13.356;2022-12-18T16:32:53;0.60;74.90
37052;DHT22;22964;52.272;13.356;2022-12-18T16:35:20;0.50;74.70
37052;DHT22;22964;52.272;13.356;2022-12-18T16:37:45;0.50;74.50
37052;DHT22;22964;52.272;13.356;2022-12-18T16:40:14;0.40;74.50
37052;DHT22;22964;52.272;13.356;2022-12-18T16:42:41;0.30;74.50
37052;DHT22;22964;52.272;13.356;2022-12-18T16:45:09;0.20;74.80
37052;DHT22;22964;52.272;13.356;2022-12-18T16:47:36;0.10;74.90
37052;DHT22;22964;52.272;13.356;2022-12-18T16:50:02;0.10;75.20
37052;DHT22;22964;52.272;13.356;2022-12-18T16:52:28;0.00;75.30
37052;DHT22;22964;52.272;13.356;2022-12-18T16:54:55;-0.10;75.40
37052;DHT22;22964;52.272;13.356;2022-12-18T16:57:21;-0.10;75.50
37052;DHT22;22964;52.272;13.356;2022-12-18T16:59:47;-0.10;75.70
37052;DHT22;22964;52.272;13.356;2022-12-18T17:02:23;-0.20;75.70
37052;DHT22;22964;52.272;13.356;2022-12-18T17:04:52;-0.20;75.80
37052;DHT22;22964;52.272;13.356;2022-12-18T17:07:18;-0.30;75.90
37052;DHT22;22964;52.272;13.356;2022-12-18T17:09:44;-0.30;76.80
37052;DHT22;22964;52.272;13.356;2022-12-18T17:12:10;-0.40;76.00
37052;DHT22;22964;52.272;13.356;2022-12-18T17:14:36;-0.40;76.10
37052;DHT22;22964;52.272;13.356;2022-12-18T17:17:02;-0.40;76.20
37052;DHT22;22964;52.272;13.356;2022-12-18T17:19:28;-0.40;76.20
37052;DHT22;22964;52.272;13.356;2022-12-18T17:21:54;-0.40;76.20
37052;DHT22;22964;52.272;13.356;2022-12-18T17:24:20;-0.40;76.20
37052;DHT22;22964;52.272;13.356;2022-12-18T17:26:46;-0.30;76.20
37052;DHT22;22964;52.272;13.356;2022-12-18T17:29:15;-0.40;76.80
37052;DHT22;22964;52.272;13.356;2022-12-18T17:31:41;-0.40;75.80
37052;DHT22;22964;52.272;13.356;2022-12-18T17:34:09;-0.40;75.70
37052;DHT22;22964;52.272;13.356;2022-12-18T17:36:35;-0.30;75.60
37052;DHT22;22964;52.272;13.356;2022-12-18T17:39:02;-0.40;75.60
37052;DHT22;22964;52.272;13.356;2022-12-18T17:41:29;-0.40;75.50
37052;DHT22;22964;52.272;13.356;2022-12-18T17:43:57;-0.40;75.60
37052;DHT22;22964;52.272;13.356;2022-12-18T17:46:24;-0.40;75.50
37052;DHT22;22964;52.272;13.356;2022-12-18T17:48:50;-0.40;75.50
37052;DHT22;22964;52.272;13.356;2022-12-18T17:51:17;-0.50;75.40
37052;DHT22;22964;52.272;13.356;2022-12-18T17:53:43;-0.50;75.60